Private Wetterstation Sandau
Wetterdaten: Freitag, 20.07.2012
Datum Zeit Temp. A. Feuchte A. Luftdruck Regen Wind Richtung Richtung Taupunkt Windchill
20.07.2012 00:01 13,5 C 82 % 1007,7 hPa 0,0 l/m 14,4 km/h (3 Bft) W 270 10,5 C 13,5 C
20.07.2012 00:06 13,6 C 82 % 1007,7 hPa 0,0 l/m 20,9 km/h (4 Bft) NW 315 10,6 C 13,6 C
20.07.2012 00:11 13,6 C 81 % 1007,9 hPa 0,0 l/m 16,9 km/h (3 Bft) W-SW 247 10,4 C 13,6 C
20.07.2012 00:16 13,6 C 80 % 1008,0 hPa 0,0 l/m 6,8 km/h (2 Bft) W 270 10,2 C 13,6 C
20.07.2012 00:21 13,5 C 80 % 1008,0 hPa 0,0 l/m 13,3 km/h (3 Bft) W-SW 247 10,1 C 13,5 C
20.07.2012 00:26 13,4 C 81 % 1008,1 hPa 0,0 l/m 16,6 km/h (3 Bft) W 270 10,2 C 13,4 C
20.07.2012 00:31 13,3 C 81 % 1008,1 hPa 0,0 l/m 19,4 km/h (3 Bft) W 270 10,1 C 13,3 C
20.07.2012 00:36 13,2 C 82 % 1008,3 hPa 0,0 l/m 8,3 km/h (2 Bft) SW 225 10,2 C 13,2 C
20.07.2012 00:41 13,2 C 81 % 1008,3 hPa 0,0 l/m 11,2 km/h (2 Bft) W 270 10,0 C 13,2 C
20.07.2012 00:46 13,1 C 81 % 1008,4 hPa 0,0 l/m 13,3 km/h (3 Bft) W-SW 247 9,9 C 13,1 C
20.07.2012 00:51 13,1 C 81 % 1008,3 hPa 0,0 l/m 10,1 km/h (2 Bft) SW 225 9,9 C 13,1 C
20.07.2012 00:56 13,0 C 81 % 1008,4 hPa 0,0 l/m 23,4 km/h (4 Bft) W-SW 247 9,8 C 13,0 C
20.07.2012 01:01 13,0 C 80 % 1008,4 hPa 0,0 l/m 13,0 km/h (3 Bft) W-NW 292 9,6 C 13,0 C
20.07.2012 01:06 13,1 C 79 % 1008,6 hPa 0,0 l/m 9,4 km/h (2 Bft) W-SW 247 9,5 C 13,1 C
20.07.2012 01:11 13,1 C 79 % 1008,6 hPa 0,0 l/m 29,2 km/h (5 Bft) W-NW 292 9,5 C 13,1 C
20.07.2012 01:16 13,1 C 79 % 1008,6 hPa 0,0 l/m 15,1 km/h (3 Bft) W-SW 247 9,5 C 13,1 C
20.07.2012 01:21 13,0 C 80 % 1008,7 hPa 0,0 l/m 13,3 km/h (3 Bft) W-NW 292 9,6 C 13,0 C
20.07.2012 01:26 13,0 C 79 % 1008,6 hPa 0,0 l/m 17,3 km/h (3 Bft) W-SW 247 9,4 C 13,0 C
20.07.2012 01:31 13,1 C 79 % 1008,8 hPa 0,0 l/m 13,3 km/h (3 Bft) NW 315 9,5 C 13,1 C
20.07.2012 01:36 13,1 C 79 % 1008,7 hPa 0,0 l/m 12,2 km/h (2 Bft) W 270 9,5 C 13,1 C
20.07.2012 01:41 13,1 C 79 % 1008,6 hPa 0,0 l/m 13,3 km/h (3 Bft) NW 315 9,5 C 13,1 C
20.07.2012 01:46 13,1 C 79 % 1008,7 hPa 0,0 l/m 16,9 km/h (3 Bft) W-NW 292 9,5 C 13,1 C
20.07.2012 01:51 13,1 C 79 % 1008,7 hPa 0,0 l/m 21,6 km/h (4 Bft) W 270 9,5 C 13,1 C
20.07.2012 01:56 13,0 C 79 % 1008,8 hPa 0,0 l/m 9,4 km/h (2 Bft) W-NW 292 9,4 C 13,0 C
20.07.2012 02:01 12,9 C 80 % 1008,8 hPa 0,0 l/m 14,0 km/h (3 Bft) W 270 9,5 C 12,9 C
20.07.2012 02:06 12,9 C 80 % 1008,8 hPa 0,0 l/m 3,6 km/h (1 Bft) W-SW 247 9,5 C 12,9 C
20.07.2012 02:11 12,9 C 80 % 1008,7 hPa 0,0 l/m 8,6 km/h (2 Bft) W-SW 247 9,5 C 12,9 C
20.07.2012 02:16 12,9 C 80 % 1008,9 hPa 0,0 l/m 12,2 km/h (2 Bft) W-SW 247 9,5 C 12,9 C
20.07.2012 02:21 12,9 C 80 % 1008,9 hPa 0,0 l/m 11,5 km/h (2 Bft) W-NW 292 9,5 C 12,9 C
20.07.2012 02:26 12,9 C 80 % 1008,9 hPa 0,0 l/m 13,3 km/h (3 Bft) W 270 9,5 C 12,9 C
20.07.2012 02:31 12,9 C 80 % 1009,1 hPa 0,0 l/m 7,6 km/h (2 Bft) W 270 9,5 C 12,9 C
20.07.2012 02:36 12,9 C 80 % 1009,2 hPa 0,0 l/m 13,7 km/h (3 Bft) W 270 9,5 C 12,9 C
20.07.2012 02:41 12,9 C 81 % 1009,0 hPa 0,0 l/m 9,0 km/h (2 Bft) W-SW 247 9,7 C 12,9 C
20.07.2012 02:46 12,8 C 81 % 1009,1 hPa 0,0 l/m 20,5 km/h (4 Bft) W-SW 247 9,6 C 12,8 C
20.07.2012 02:51 12,8 C 81 % 1009,1 hPa 0,0 l/m 23,8 km/h (4 Bft) W-SW 247 9,6 C 12,8 C
20.07.2012 02:56 12,8 C 81 % 1009,1 hPa 0,0 l/m 11,5 km/h (2 Bft) NW 315 9,6 C 12,8 C
20.07.2012 03:01 12,8 C 81 % 1009,2 hPa 0,0 l/m 11,9 km/h (2 Bft) W-NW 292 9,6 C 12,8 C
20.07.2012 03:06 12,8 C 81 % 1009,1 hPa 0,0 l/m 10,8 km/h (2 Bft) W-SW 247 9,6 C 12,8 C
20.07.2012 03:11 12,7 C 81 % 1009,3 hPa 0,0 l/m 27,4 km/h (4 Bft) W-SW 247 9,5 C 12,7 C
20.07.2012 03:16 12,7 C 81 % 1009,2 hPa 0,0 l/m 21,2 km/h (4 Bft) W-SW 247 9,5 C 12,7 C
20.07.2012 03:21 12,7 C 81 % 1009,3 hPa 0,0 l/m 19,1 km/h (3 Bft) W 270 9,5 C 12,7 C
20.07.2012 03:26 12,7 C 81 % 1009,3 hPa 0,0 l/m 16,9 km/h (3 Bft) W 270 9,5 C 12,7 C
20.07.2012 03:31 12,6 C 81 % 1009,4 hPa 0,0 l/m 28,1 km/h (4 Bft) W 270 9,4 C 12,6 C
20.07.2012 03:36 12,6 C 81 % 1009,5 hPa 0,0 l/m 15,1 km/h (3 Bft) W-SW 247 9,4 C 12,6 C
20.07.2012 03:41 12,5 C 82 % 1009,7 hPa 0,0 l/m 25,6 km/h (4 Bft) W-SW 247 9,5 C 12,5 C
20.07.2012 03:46 12,5 C 82 % 1009,6 hPa 0,0 l/m 21,2 km/h (4 Bft) W-SW 247 9,5 C 12,5 C
20.07.2012 03:51 12,5 C 82 % 1009,8 hPa 0,0 l/m 8,6 km/h (2 Bft) W-SW 247 9,5 C 12,5 C
20.07.2012 03:56 12,4 C 82 % 1009,8 hPa 0,0 l/m 11,2 km/h (2 Bft) NW 315 9,4 C 12,4 C
20.07.2012 04:01 12,4 C 82 % 1009,8 hPa 0,0 l/m 13,7 km/h (3 Bft) W 270 9,4 C 12,4 C
20.07.2012 04:06 12,4 C 82 % 1009,9 hPa 0,0 l/m 10,1 km/h (2 Bft) SW 225 9,4 C 12,4 C
20.07.2012 04:11 12,4 C 82 % 1009,9 hPa 0,0 l/m 17,3 km/h (3 Bft) W-SW 247 9,4 C 12,4 C
20.07.2012 04:16 12,3 C 82 % 1009,9 hPa 0,0 l/m 16,6 km/h (3 Bft) W-SW 247 9,3 C 12,3 C
20.07.2012 04:21 12,3 C 82 % 1009,9 hPa 0,0 l/m 9,4 km/h (2 Bft) W-NW 292 9,3 C 12,3 C
20.07.2012 04:26 12,2 C 82 % 1009,9 hPa 0,0 l/m 10,1 km/h (2 Bft) W-SW 247 9,2 C 12,2 C
20.07.2012 04:31 12,1 C 83 % 1010,0 hPa 0,0 l/m 19,1 km/h (3 Bft) W 270 9,3 C 12,1 C
20.07.2012 04:36 12,1 C 83 % 1010,1 hPa 0,0 l/m 16,9 km/h (3 Bft) W-SW 247 9,3 C 12,1 C
20.07.2012 04:41 11,9 C 83 % 1010,2 hPa 0,0 l/m 7,6 km/h (2 Bft) W-SW 247 9,1 C 11,9 C
20.07.2012 04:46 11,9 C 84 % 1010,3 hPa 0,0 l/m 13,3 km/h (3 Bft) W-SW 247 9,3 C 11,9 C
20.07.2012 04:51 11,9 C 84 % 1010,4 hPa 0,0 l/m 15,1 km/h (3 Bft) W 270 9,3 C 11,9 C
20.07.2012 04:56 11,8 C 84 % 1010,4 hPa 0,0 l/m 6,8 km/h (2 Bft) W 270 9,2 C 11,8 C
20.07.2012 05:01 11,8 C 84 % 1010,6 hPa 0,0 l/m 9,4 km/h (2 Bft) W-SW 247 9,2 C 11,8 C
20.07.2012 05:06 11,8 C 84 % 1010,6 hPa 0,0 l/m 23,4 km/h (4 Bft) W 270 9,2 C 11,8 C
20.07.2012 05:11 11,8 C 84 % 1010,7 hPa 0,0 l/m 14,8 km/h (3 Bft) NW 315 9,2 C 11,8 C
20.07.2012 05:16 11,8 C 84 % 1010,4 hPa 0,0 l/m 5,0 km/h (1 Bft) SW 225 9,2 C 11,8 C
20.07.2012 05:21 11,7 C 84 % 1010,4 hPa 0,0 l/m 14,4 km/h (3 Bft) SW 225 9,1 C 11,7 C
20.07.2012 05:26 11,6 C 84 % 1010,5 hPa 0,0 l/m 23,0 km/h (4 Bft) W-SW 247 9,0 C 11,6 C
20.07.2012 05:31 11,8 C 84 % 1010,7 hPa 0,0 l/m 14,8 km/h (3 Bft) W-SW 247 9,2 C 11,8 C
20.07.2012 05:36 11,8 C 84 % 1010,8 hPa 0,0 l/m 16,9 km/h (3 Bft) W 270 9,2 C 11,8 C
20.07.2012 05:41 11,8 C 84 % 1010,7 hPa 0,0 l/m 29,5 km/h (5 Bft) W 270 9,2 C 11,8 C
20.07.2012 05:46 11,8 C 84 % 1010,8 hPa 0,0 l/m 5,8 km/h (2 Bft) W-SW 247 9,2 C 11,8 C
20.07.2012 05:51 11,8 C 84 % 1010,9 hPa 0,0 l/m 13,7 km/h (3 Bft) W-SW 247 9,2 C 11,8 C
20.07.2012 05:56 11,6 C 84 % 1010,9 hPa 0,0 l/m 12,2 km/h (2 Bft) W 270 9,0 C 11,6 C
20.07.2012 06:01 11,6 C 84 % 1010,9 hPa 0,0 l/m 18,0 km/h (3 Bft) W 270 9,0 C 11,6 C
20.07.2012 06:06 11,6 C 84 % 1010,9 hPa 0,0 l/m 13,3 km/h (3 Bft) W 270 9,0 C 11,6 C
20.07.2012 06:11 11,5 C 84 % 1011,0 hPa 0,0 l/m 19,8 km/h (3 Bft) W 270 8,9 C 11,5 C
20.07.2012 06:16 11,5 C 84 % 1011,0 hPa 0,0 l/m 12,2 km/h (2 Bft) SW 225 8,9 C 11,5 C
20.07.2012 06:21 11,5 C 85 % 1011,0 hPa 0,0 l/m 20,9 km/h (4 Bft) W-NW 292 9,1 C 11,5 C
20.07.2012 06:26 11,5 C 85 % 1011,1 hPa 0,0 l/m 13,3 km/h (3 Bft) W-SW 247 9,1 C 11,5 C
20.07.2012 06:31 11,6 C 85 % 1011,1 hPa 0,0 l/m 14,8 km/h (3 Bft) W 270 9,2 C 11,6 C
20.07.2012 06:36 12,1 C 84 % 1011,2 hPa 0,0 l/m 10,4 km/h (2 Bft) W-SW 247 9,5 C 12,1 C
20.07.2012 06:41 14,9 C 78 % 1011,3 hPa 0,0 l/m 12,2 km/h (2 Bft) W 270 11,1 C 14,9 C
20.07.2012 06:46 16,1 C 73 % 1011,1 hPa 0,0 l/m 14,8 km/h (3 Bft) W-SW 247 11,3 C 16,1 C
20.07.2012 06:51 16,8 C 69 % 1011,1 hPa 0,0 l/m 8,3 km/h (2 Bft) W 270 11,1 C 16,8 C
20.07.2012 06:56 16,6 C 68 % 1011,3 hPa 0,0 l/m 22,3 km/h (4 Bft) W-SW 247 10,7 C 16,6 C
20.07.2012 07:01 17,2 C 67 % 1011,2 hPa 0,0 l/m 11,9 km/h (2 Bft) W 270 11,0 C 17,2 C
20.07.2012 07:06 17,4 C 65 % 1011,3 hPa 0,0 l/m 5,0 km/h (1 Bft) NW 315 10,8 C 17,4 C
20.07.2012 07:11 17,8 C 65 % 1011,4 hPa 0,0 l/m 16,9 km/h (3 Bft) W-SW 247 11,1 C 17,8 C
20.07.2012 07:16 17,8 C 65 % 1011,4 hPa 0,0 l/m 22,0 km/h (4 Bft) W-SW 247 11,1 C 17,8 C
20.07.2012 07:21 17,8 C 64 % 1011,6 hPa 0,0 l/m 9,4 km/h (2 Bft) W-NW 292 10,9 C 17,8 C
20.07.2012 07:26 17,4 C 65 % 1011,6 hPa 0,0 l/m 29,2 km/h (5 Bft) W 270 10,8 C 17,4 C
20.07.2012 07:31 17,4 C 66 % 1011,6 hPa 0,0 l/m 15,5 km/h (3 Bft) W 270 11,0 C 17,4 C
20.07.2012 07:36 17,1 C 66 % 1011,8 hPa 0,0 l/m 6,5 km/h (2 Bft) W 270 10,7 C 17,1 C
20.07.2012 07:41 16,9 C 67 % 1011,9 hPa 0,0 l/m 4,3 km/h (1 Bft) W 270 10,7 C 16,9 C
20.07.2012 07:46 16,5 C 68 % 1011,8 hPa 0,0 l/m 16,6 km/h (3 Bft) W-SW 247 10,6 C 16,5 C
20.07.2012 07:51 16,1 C 69 % 1011,8 hPa 0,0 l/m 6,5 km/h (2 Bft) W-SW 247 10,4 C 16,1 C
20.07.2012 07:56 15,1 C 72 % 1012,0 hPa 0,0 l/m 21,2 km/h (4 Bft) W-SW 247 10,1 C 15,1 C
20.07.2012 08:01 15,4 C 72 % 1012,0 hPa 0,0 l/m 3,6 km/h (1 Bft) W 270 10,4 C 15,4 C
20.07.2012 08:06 15,6 C 72 % 1012,1 hPa 0,0 l/m 14,0 km/h (3 Bft) W-SW 247 10,6 C 15,6 C
20.07.2012 08:11 15,8 C 71 % 1012,0 hPa 0,0 l/m 33,1 km/h (5 Bft) W-SW 247 10,6 C 15,8 C
20.07.2012 08:16 15,8 C 71 % 1012,1 hPa 0,0 l/m 10,4 km/h (2 Bft) W 270 10,6 C 15,8 C
20.07.2012 08:21 15,9 C 71 % 1012,1 hPa 0,0 l/m 7,2 km/h (2 Bft) W 270 10,6 C 15,9 C
20.07.2012 08:26 16,1 C 70 % 1012,2 hPa 0,0 l/m 14,8 km/h (3 Bft) W 270 10,6 C 16,1 C
20.07.2012 08:31 16,1 C 70 % 1012,2 hPa 0,0 l/m 8,3 km/h (2 Bft) W-SW 247 10,6 C 16,1 C
20.07.2012 08:36 16,2 C 70 % 1012,3 hPa 0,0 l/m 7,6 km/h (2 Bft) W-SW 247 10,7 C 16,2 C
20.07.2012 08:41 16,1 C 70 % 1012,4 hPa 0,0 l/m 19,4 km/h (3 Bft) NW 315 10,6 C 16,1 C
20.07.2012 08:46 16,2 C 70 % 1012,5 hPa 0,0 l/m 8,6 km/h (2 Bft) SW 225 10,7 C 16,2 C
20.07.2012 08:51 16,3 C 71 % 1012,4 hPa 0,0 l/m 11,5 km/h (2 Bft) SW 225 11,0 C 16,3 C
20.07.2012 08:56 16,4 C 69 % 1012,3 hPa 0,0 l/m 6,8 km/h (2 Bft) W-NW 292 10,7 C 16,4 C
20.07.2012 09:01 16,6 C 70 % 1012,5 hPa 0,0 l/m 14,0 km/h (3 Bft) S 180 11,1 C 16,6 C
20.07.2012 09:06 16,6 C 69 % 1012,5 hPa 0,0 l/m 7,2 km/h (2 Bft) W-SW 247 10,9 C 16,6 C
20.07.2012 09:11 16,6 C 68 % 1012,7 hPa 0,0 l/m 11,5 km/h (2 Bft) W-SW 247 10,7 C 16,6 C
20.07.2012 09:16 16,8 C 69 % 1012,8 hPa 0,0 l/m 13,0 km/h (3 Bft) W-SW 247 11,1 C 16,8 C
20.07.2012 09:21 17,1 C 68 % 1012,9 hPa 0,0 l/m 22,7 km/h (4 Bft) W-NW 292 11,1 C 17,1 C
20.07.2012 09:26 17,0 C 68 % 1013,0 hPa 0,0 l/m 5,8 km/h (2 Bft) W-NW 292 11,0 C 17,0 C
20.07.2012 09:31 17,2 C 68 % 1012,9 hPa 0,0 l/m 5,4 km/h (1 Bft) W 270 11,2 C 17,2 C
20.07.2012 09:36 16,9 C 67 % 1013,0 hPa 0,0 l/m 23,0 km/h (4 Bft) W-SW 247 10,7 C 16,9 C
20.07.2012 09:41 16,5 C 67 % 1012,9 hPa 0,0 l/m 14,4 km/h (3 Bft) W-NW 292 10,4 C 16,5 C
20.07.2012 09:46 16,7 C 68 % 1013,0 hPa 0,0 l/m 8,3 km/h (2 Bft) W 270 10,8 C 16,7 C
20.07.2012 09:51 16,9 C 68 % 1013,1 hPa 0,0 l/m 33,8 km/h (5 Bft) W-SW 247 11,0 C 16,9 C
20.07.2012 09:56 17,5 C 67 % 1013,1 hPa 0,0 l/m 20,5 km/h (4 Bft) NW 315 11,3 C 17,5 C
20.07.2012 10:01 17,2 C 65 % 1013,2 hPa 0,0 l/m 19,8 km/h (3 Bft) SW 225 10,6 C 17,2 C
20.07.2012 10:06 17,2 C 67 % 1013,3 hPa 0,0 l/m 23,4 km/h (4 Bft) W-SW 247 11,0 C 17,2 C
20.07.2012 10:11 17,5 C 65 % 1013,3 hPa 0,0 l/m 10,4 km/h (2 Bft) W 270 10,8 C 17,5 C
20.07.2012 10:16 17,6 C 66 % 1013,2 hPa 0,0 l/m 20,5 km/h (4 Bft) W-SW 247 11,2 C 17,6 C
20.07.2012 10:21 17,4 C 66 % 1013,3 hPa 0,0 l/m 7,6 km/h (2 Bft) W-SW 247 11,0 C 17,4 C
20.07.2012 10:26 17,9 C 65 % 1013,3 hPa 0,0 l/m 15,5 km/h (3 Bft) W-NW 292 11,2 C 17,9 C
20.07.2012 10:31 18,1 C 64 % 1013,4 hPa 0,0 l/m 15,1 km/h (3 Bft) W-SW 247 11,2 C 18,1 C
20.07.2012 10:36 18,2 C 63 % 1013,3 hPa 0,0 l/m 6,1 km/h (2 Bft) W-NW 292 11,0 C 18,2 C
20.07.2012 10:41 17,8 C 63 % 1013,3 hPa 0,0 l/m 23,0 km/h (4 Bft) W-SW 247 10,7 C 17,8 C
20.07.2012 10:46 17,5 C 64 % 1013,5 hPa 0,0 l/m 30,6 km/h (5 Bft) W-SW 247 10,6 C 17,5 C
20.07.2012 10:51 18,1 C 64 % 1013,3 hPa 0,0 l/m 16,9 km/h (3 Bft) W-SW 247 11,2 C 18,1 C
20.07.2012 10:56 17,9 C 64 % 1013,2 hPa 0,0 l/m 7,2 km/h (2 Bft) W-NW 292 11,0 C 17,9 C
20.07.2012 11:01 18,3 C 62 % 1013,4 hPa 0,0 l/m 16,6 km/h (3 Bft) W 270 10,9 C 18,3 C
20.07.2012 11:06 17,9 C 63 % 1013,4 hPa 0,0 l/m 6,5 km/h (2 Bft) W-SW 247 10,8 C 17,9 C
20.07.2012 11:11 17,5 C 64 % 1013,4 hPa 0,0 l/m 18,0 km/h (3 Bft) W-NW 292 10,6 C 17,5 C
20.07.2012 11:16 18,1 C 63 % 1013,3 hPa 0,0 l/m 22,0 km/h (4 Bft) W-SW 247 10,9 C 18,1 C
20.07.2012 11:21 18,5 C 61 % 1013,4 hPa 0,0 l/m 12,2 km/h (2 Bft) W 270 10,8 C 18,5 C
20.07.2012 11:26 18,9 C 61 % 1013,4 hPa 0,0 l/m 6,5 km/h (2 Bft) NW 315 11,2 C 18,9 C
20.07.2012 11:31 18,8 C 57 % 1013,4 hPa 0,0 l/m 10,8 km/h (2 Bft) W-SW 247 10,1 C 18,8 C
20.07.2012 11:36 18,9 C 57 % 1013,3 hPa 0,0 l/m 3,6 km/h (1 Bft) W 270 10,2 C 18,9 C
20.07.2012 11:41 18,9 C 57 % 1013,3 hPa 0,0 l/m 16,9 km/h (3 Bft) N-NW 337 10,2 C 18,9 C
20.07.2012 11:46 18,9 C 60 % 1013,5 hPa 0,0 l/m 6,8 km/h (2 Bft) W 270 11,0 C 18,9 C
20.07.2012 11:51 19,6 C 56 % 1013,4 hPa 0,0 l/m 12,6 km/h (3 Bft) SW 225 10,6 C 19,6 C
20.07.2012 11:56 19,9 C 55 % 1013,5 hPa 0,0 l/m 14,4 km/h (3 Bft) NW 315 10,6 C 19,9 C
20.07.2012 12:01 18,9 C 54 % 1013,6 hPa 0,0 l/m 11,2 km/h (2 Bft) NW 315 9,4 C 18,9 C
20.07.2012 12:06 18,7 C 56 % 1013,5 hPa 0,0 l/m 10,4 km/h (2 Bft) W 270 9,7 C 18,7 C
20.07.2012 12:11 19,0 C 57 % 1013,4 hPa 0,0 l/m 24,8 km/h (4 Bft) SW 225 10,3 C 19,0 C
20.07.2012 12:16 19,5 C 55 % 1013,4 hPa 0,0 l/m 6,1 km/h (2 Bft) W-SW 247 10,2 C 19,5 C
20.07.2012 12:21 19,1 C 54 % 1013,3 hPa 0,0 l/m 16,2 km/h (3 Bft) W 270 9,6 C 19,1 C
20.07.2012 12:26 19,7 C 55 % 1013,3 hPa 0,0 l/m 24,8 km/h (4 Bft) W 270 10,4 C 19,7 C
20.07.2012 12:31 20,2 C 53 % 1013,4 hPa 0,0 l/m 20,2 km/h (4 Bft) W 270 10,3 C 20,2 C
20.07.2012 12:36 19,9 C 50 % 1013,1 hPa 0,0 l/m 13,0 km/h (3 Bft) NW 315 9,2 C 19,9 C
20.07.2012 12:41 19,5 C 51 % 1013,5 hPa 0,0 l/m 16,2 km/h (3 Bft) NW 315 9,1 C 19,5 C
20.07.2012 12:46 19,0 C 52 % 1013,5 hPa 0,0 l/m 10,8 km/h (2 Bft) W 270 8,9 C 19,0 C
20.07.2012 12:51 18,7 C 53 % 1013,5 hPa 0,0 l/m 11,2 km/h (2 Bft) W-NW 292 8,9 C 18,7 C
20.07.2012 12:56 18,5 C 54 % 1013,5 hPa 0,0 l/m 13,3 km/h (3 Bft) W-SW 247 9,0 C 18,5 C
20.07.2012 13:01 19,8 C 54 % 1013,4 hPa 0,0 l/m 20,5 km/h (4 Bft) W-SW 247 10,2 C 19,8 C
20.07.2012 13:06 19,7 C 52 % 1013,5 hPa 0,0 l/m 15,8 km/h (3 Bft) NW 315 9,6 C 19,7 C
20.07.2012 13:11 18,8 C 53 % 1013,6 hPa 0,0 l/m 5,4 km/h (1 Bft) N 360 9,0 C 18,8 C
20.07.2012 13:16 18,4 C 55 % 1013,5 hPa 0,0 l/m 6,5 km/h (2 Bft) N 360 9,2 C 18,4 C
20.07.2012 13:21 18,4 C 55 % 1013,5 hPa 0,0 l/m 9,7 km/h (2 Bft) NW 315 9,2 C 18,4 C
20.07.2012 13:26 18,8 C 56 % 1013,5 hPa 0,0 l/m 14,0 km/h (3 Bft) W 270 9,8 C 18,8 C
20.07.2012 13:31 19,3 C 53 % 1013,4 hPa 0,0 l/m 7,2 km/h (2 Bft) N-NW 337 9,5 C 19,3 C
20.07.2012 13:36 19,0 C 53 % 1013,6 hPa 0,0 l/m 4,0 km/h (1 Bft) W 270 9,2 C 19,0 C
20.07.2012 13:41 18,7 C 54 % 1013,5 hPa 0,0 l/m 7,2 km/h (2 Bft) S-SW 202 9,2 C 18,7 C
20.07.2012 13:46 18,3 C 54 % 1013,6 hPa 0,0 l/m 14,0 km/h (3 Bft) W 270 8,8 C 18,3 C
20.07.2012 13:51 18,4 C 56 % 1013,7 hPa 0,0 l/m 8,3 km/h (2 Bft) NW 315 9,5 C 18,4 C
20.07.2012 13:56 18,6 C 56 % 1013,6 hPa 0,0 l/m 10,1 km/h (2 Bft) W 270 9,6 C 18,6 C
20.07.2012 14:01 18,8 C 56 % 1013,6 hPa 0,0 l/m 5,0 km/h (1 Bft) SW 225 9,8 C 18,8 C
20.07.2012 14:06 19,0 C 56 % 1013,5 hPa 0,0 l/m 9,7 km/h (2 Bft) W 270 10,0 C 19,0 C
20.07.2012 14:11 18,8 C 54 % 1013,6 hPa 0,0 l/m 18,0 km/h (3 Bft) W-SW 247 9,3 C 18,8 C
20.07.2012 14:16 18,8 C 54 % 1013,8 hPa 0,0 l/m 20,5 km/h (4 Bft) W 270 9,3 C 18,8 C
20.07.2012 14:21 19,9 C 54 % 1013,7 hPa 0,0 l/m 6,8 km/h (2 Bft) W-SW 247 10,3 C 19,9 C
20.07.2012 14:26 20,7 C 51 % 1013,7 hPa 0,0 l/m 16,6 km/h (3 Bft) W 270 10,2 C 20,7 C
20.07.2012 14:31 20,3 C 49 % 1013,7 hPa 0,0 l/m 11,5 km/h (2 Bft) W-SW 247 9,2 C 20,3 C
20.07.2012 14:36 19,9 C 49 % 1013,8 hPa 0,0 l/m 13,7 km/h (3 Bft) W-NW 292 8,9 C 19,9 C
20.07.2012 14:41 19,6 C 51 % 1013,8 hPa 0,0 l/m 22,3 km/h (4 Bft) SW 225 9,2 C 19,6 C
20.07.2012 14:46 19,6 C 52 % 1013,8 hPa 0,0 l/m 13,3 km/h (3 Bft) W-NW 292 9,5 C 19,6 C
20.07.2012 14:51 19,6 C 53 % 1013,7 hPa 0,0 l/m 10,8 km/h (2 Bft) W-SW 247 9,8 C 19,6 C
20.07.2012 14:56 19,8 C 52 % 1013,8 hPa 0,0 l/m 15,5 km/h (3 Bft) W-SW 247 9,7 C 19,8 C
20.07.2012 15:01 20,6 C 50 % 1013,6 hPa 0,0 l/m 16,2 km/h (3 Bft) W-SW 247 9,8 C 20,6 C
20.07.2012 15:06 20,7 C 50 % 1013,6 hPa 0,0 l/m 6,1 km/h (2 Bft) W-SW 247 9,9 C 20,7 C
20.07.2012 15:11 21,2 C 49 % 1013,6 hPa 0,0 l/m 8,3 km/h (2 Bft) W 270 10,1 C 21,2 C
20.07.2012 15:16 20,8 C 48 % 1013,8 hPa 0,0 l/m 6,5 km/h (2 Bft) SW 225 9,4 C 20,8 C
20.07.2012 15:21 20,0 C 47 % 1013,8 hPa 0,0 l/m 6,1 km/h (2 Bft) W-NW 292 8,3 C 20,0 C
20.07.2012 15:26 19,6 C 50 % 1013,8 hPa 0,0 l/m 14,0 km/h (3 Bft) W 270 8,9 C 19,6 C
20.07.2012 15:31 19,3 C 50 % 1013,8 hPa 0,0 l/m 13,0 km/h (3 Bft) W-SW 247 8,6 C 19,3 C
20.07.2012 15:36 18,9 C 51 % 1013,8 hPa 0,0 l/m 6,8 km/h (2 Bft) W 270 8,5 C 18,9 C
20.07.2012 15:41 18,9 C 51 % 1013,9 hPa 0,0 l/m 5,0 km/h (1 Bft) W-NW 292 8,5 C 18,9 C
20.07.2012 15:46 18,9 C 52 % 1013,8 hPa 0,0 l/m 5,4 km/h (1 Bft) N 360 8,8 C 18,9 C
20.07.2012 15:51 19,0 C 52 % 1013,8 hPa 0,0 l/m 1,1 km/h (1 Bft) W-NW 292 8,9 C 19,0 C
20.07.2012 15:56 19,4 C 52 % 1013,7 hPa 0,0 l/m 5,8 km/h (2 Bft) NW 315 9,3 C 19,4 C
20.07.2012 16:01 20,6 C 51 % 1013,7 hPa 0,0 l/m 8,3 km/h (2 Bft) W-NW 292 10,1 C 20,6 C
20.07.2012 16:06 21,4 C 49 % 1013,8 hPa 0,0 l/m 11,5 km/h (2 Bft) NW 315 10,2 C 21,4 C
20.07.2012 16:11 21,6 C 47 % 1013,7 hPa 0,0 l/m 7,2 km/h (2 Bft) N-NW 337 9,8 C 21,6 C
20.07.2012 16:16 21,6 C 47 % 1013,6 hPa 0,0 l/m 5,4 km/h (1 Bft) N 360 9,8 C 21,6 C
20.07.2012 16:21 21,7 C 46 % 1013,5 hPa 0,0 l/m 9,7 km/h (2 Bft) W-NW 292 9,6 C 21,7 C
20.07.2012 16:26 21,4 C 45 % 1013,8 hPa 0,0 l/m 6,5 km/h (2 Bft) W 270 9,0 C 21,4 C
20.07.2012 16:31 20,4 C 47 % 1013,8 hPa 0,0 l/m 10,8 km/h (2 Bft) W-NW 292 8,7 C 20,4 C
20.07.2012 16:36 19,9 C 49 % 1013,8 hPa 0,0 l/m 2,2 km/h (1 Bft) N-NW 337 8,9 C 19,9 C
20.07.2012 16:41 19,6 C 50 % 1013,9 hPa 0,0 l/m 6,1 km/h (2 Bft) NW 315 8,9 C 19,6 C
20.07.2012 16:46 19,3 C 51 % 1013,9 hPa 0,0 l/m 9,0 km/h (2 Bft) NW 315 8,9 C 19,3 C
20.07.2012 16:51 19,2 C 51 % 1014,0 hPa 0,0 l/m 2,9 km/h (1 Bft) W-NW 292 8,8 C 19,2 C
20.07.2012 16:56 19,1 C 51 % 1013,9 hPa 0,0 l/m 9,4 km/h (2 Bft) N-NW 337 8,7 C 19,1 C
20.07.2012 17:01 19,0 C 52 % 1014,0 hPa 0,0 l/m 9,7 km/h (2 Bft) W-NW 292 8,9 C 19,0 C
20.07.2012 17:06 19,2 C 51 % 1014,0 hPa 0,0 l/m 12,6 km/h (3 Bft) W-NW 292 8,8 C 19,2 C
20.07.2012 17:11 19,3 C 51 % 1013,9 hPa 0,0 l/m 5,0 km/h (1 Bft) N-NO 22 8,9 C 19,3 C
20.07.2012 17:16 19,4 C 52 % 1014,1 hPa 0,0 l/m 14,0 km/h (3 Bft) N-NW 337 9,3 C 19,4 C
20.07.2012 17:21 19,1 C 52 % 1014,0 hPa 0,0 l/m 6,1 km/h (2 Bft) NO 45 9,0 C 19,1 C
20.07.2012 17:26 18,9 C 53 % 1014,2 hPa 0,0 l/m 9,7 km/h (2 Bft) NW 315 9,1 C 18,9 C
20.07.2012 17:31 19,1 C 54 % 1014,1 hPa 0,0 l/m 8,3 km/h (2 Bft) NW 315 9,6 C 19,1 C
20.07.2012 17:36 19,1 C 54 % 1014,2 hPa 0,0 l/m 2,9 km/h (1 Bft) NW 315 9,6 C 19,1 C
20.07.2012 17:41 19,1 C 55 % 1014,2 hPa 0,0 l/m 6,8 km/h (2 Bft) N-NW 337 9,8 C 19,1 C
20.07.2012 17:46 19,2 C 56 % 1014,2 hPa 0,0 l/m 6,8 km/h (2 Bft) N-NO 22 10,2 C 19,2 C
20.07.2012 17:51 19,2 C 56 % 1014,3 hPa 0,0 l/m 2,5 km/h (1 Bft) W-NW 292 10,2 C 19,2 C
20.07.2012 17:56 19,3 C 55 % 1014,3 hPa 0,0 l/m 2,2 km/h (1 Bft) W-NW 292 10,0 C 19,3 C
20.07.2012 18:01 19,4 C 55 % 1014,2 hPa 0,0 l/m 9,4 km/h (2 Bft) W-NW 292 10,1 C 19,4 C
20.07.2012 18:06 19,3 C 55 % 1014,2 hPa 0,0 l/m 11,5 km/h (2 Bft) W 270 10,0 C 19,3 C
20.07.2012 18:11 19,1 C 55 % 1014,3 hPa 0,0 l/m 6,1 km/h (2 Bft) S-SW 202 9,8 C 19,1 C
20.07.2012 18:16 18,9 C 55 % 1014,2 hPa 0,0 l/m 18,0 km/h (3 Bft) NW 315 9,7 C 18,9 C
20.07.2012 18:21 19,2 C 54 % 1014,2 hPa 0,0 l/m 12,6 km/h (3 Bft) W 270 9,7 C 19,2 C
20.07.2012 18:26 19,5 C 54 % 1014,2 hPa 0,0 l/m 23,0 km/h (4 Bft) W 270 9,9 C 19,5 C
20.07.2012 18:31 19,6 C 52 % 1014,1 hPa 0,0 l/m 22,7 km/h (4 Bft) W-SW 247 9,5 C 19,6 C
20.07.2012 18:36 19,9 C 52 % 1013,9 hPa 0,0 l/m 8,3 km/h (2 Bft) W-NW 292 9,7 C 19,9 C
20.07.2012 18:41 20,3 C 51 % 1013,9 hPa 0,0 l/m 5,0 km/h (1 Bft) W-NW 292 9,8 C 20,3 C
20.07.2012 18:46 20,3 C 49 % 1014,1 hPa 0,0 l/m 19,8 km/h (3 Bft) W-SW 247 9,2 C 20,3 C
20.07.2012 18:51 19,4 C 50 % 1014,2 hPa 0,0 l/m 19,1 km/h (3 Bft) W 270 8,7 C 19,4 C
20.07.2012 18:56 18,6 C 53 % 1014,2 hPa 0,0 l/m 6,1 km/h (2 Bft) W 270 8,8 C 18,6 C
20.07.2012 19:01 18,2 C 54 % 1014,4 hPa 0,0 l/m 7,2 km/h (2 Bft) W-NW 292 8,7 C 18,2 C
20.07.2012 19:06 17,9 C 56 % 1014,3 hPa 0,0 l/m 9,0 km/h (2 Bft) W-NW 292 9,0 C 17,9 C
20.07.2012 19:11 17,7 C 57 % 1014,5 hPa 0,0 l/m 13,3 km/h (3 Bft) NW 315 9,1 C 17,7 C
20.07.2012 19:16 17,5 C 57 % 1014,6 hPa 0,0 l/m 10,8 km/h (2 Bft) W-NW 292 8,9 C 17,5 C
20.07.2012 19:21 17,4 C 57 % 1014,5 hPa 0,0 l/m 9,0 km/h (2 Bft) NW 315 8,8 C 17,4 C
20.07.2012 19:26 17,5 C 57 % 1014,6 hPa 0,0 l/m 7,6 km/h (2 Bft) W-NW 292 8,9 C 17,5 C
20.07.2012 19:31 17,9 C 55 % 1014,5 hPa 0,0 l/m 4,0 km/h (1 Bft) NW 315 8,7 C 17,9 C
20.07.2012 19:36 17,9 C 53 % 1014,6 hPa 0,0 l/m 9,7 km/h (2 Bft) NW 315 8,2 C 17,9 C
20.07.2012 19:41 17,4 C 54 % 1014,6 hPa 0,0 l/m 10,4 km/h (2 Bft) W-NW 292 8,0 C 17,4 C
20.07.2012 19:46 17,3 C 54 % 1014,6 hPa 0,0 l/m 14,8 km/h (3 Bft) W-NW 292 7,9 C 17,3 C
20.07.2012 19:51 17,1 C 54 % 1014,6 hPa 0,0 l/m 6,8 km/h (2 Bft) W-NW 292 7,7 C 17,1 C
20.07.2012 19:56 16,9 C 55 % 1014,6 hPa 0,0 l/m 11,9 km/h (2 Bft) NW 315 7,8 C 16,9 C
20.07.2012 20:01 16,9 C 56 % 1014,8 hPa 0,0 l/m 12,6 km/h (3 Bft) W 270 8,1 C 16,9 C
20.07.2012 20:06 16,8 C 56 % 1014,8 hPa 0,0 l/m 8,3 km/h (2 Bft) W-NW 292 8,0 C 16,8 C
20.07.2012 20:11 16,9 C 56 % 1014,8 hPa 0,0 l/m 3,6 km/h (1 Bft) NW 315 8,1 C 16,9 C
20.07.2012 20:16 17,1 C 56 % 1014,9 hPa 0,0 l/m 5,4 km/h (1 Bft) W-NW 292 8,3 C 17,1 C
20.07.2012 20:21 17,1 C 56 % 1014,9 hPa 0,0 l/m 5,0 km/h (1 Bft) W-NW 292 8,3 C 17,1 C
20.07.2012 20:26 16,9 C 57 % 1015,0 hPa 0,0 l/m 5,4 km/h (1 Bft) W 270 8,3 C 16,9 C
20.07.2012 20:31 16,6 C 57 % 1014,9 hPa 0,0 l/m 3,6 km/h (1 Bft) W-NW 292 8,0 C 16,6 C
20.07.2012 20:36 16,4 C 58 % 1015,0 hPa 0,0 l/m 4,0 km/h (1 Bft) W-NW 292 8,1 C 16,4 C
20.07.2012 20:41 16,2 C 59 % 1014,9 hPa 0,0 l/m 4,7 km/h (1 Bft) W 270 8,2 C 16,2 C
20.07.2012 20:46 16,1 C 60 % 1015,2 hPa 0,0 l/m 5,4 km/h (1 Bft) NW 315 8,3 C 16,1 C
20.07.2012 20:51 16,1 C 61 % 1015,2 hPa 0,0 l/m 2,5 km/h (1 Bft) W 270 8,6 C 16,1 C
20.07.2012 20:56 15,9 C 61 % 1015,1 hPa 0,0 l/m 8,6 km/h (2 Bft) W-NW 292 8,4 C 15,9 C
20.07.2012 21:01 15,9 C 62 % 1015,3 hPa 0,0 l/m 0,0 km/h (0 Bft) W-NW 292 8,6 C 15,9 C
20.07.2012 21:06 15,8 C 62 % 1015,2 hPa 0,0 l/m 4,0 km/h (1 Bft) W 270 8,5 C 15,8 C
20.07.2012 21:11 15,8 C 62 % 1015,3 hPa 0,0 l/m 1,4 km/h (1 Bft) W 270 8,5 C 15,8 C
20.07.2012 21:16 15,6 C 63 % 1015,3 hPa 0,0 l/m 4,7 km/h (1 Bft) W 270 8,6 C 15,6 C
20.07.2012 21:21 15,5 C 64 % 1015,2 hPa 0,0 l/m 2,2 km/h (1 Bft) W 270 8,7 C 15,5 C
20.07.2012 21:26 15,3 C 64 % 1015,3 hPa 0,0 l/m 4,7 km/h (1 Bft) W-NW 292 8,5 C 15,3 C
20.07.2012 21:31 14,9 C 65 % 1015,6 hPa 0,0 l/m 0,0 km/h (0 Bft) W-NW 292 8,4 C 14,9 C
20.07.2012 21:36 14,9 C 65 % 1015,5 hPa 0,0 l/m 5,4 km/h (1 Bft) W-NW 292 8,4 C 14,9 C
20.07.2012 21:41 14,6 C 67 % 1015,5 hPa 0,0 l/m 0,0 km/h (0 Bft) W 270 8,5 C 14,6 C
20.07.2012 21:46 14,4 C 68 % 1015,6 hPa 0,0 l/m 0,0 km/h (0 Bft) W 270 8,6 C 14,4 C
20.07.2012 21:51 14,2 C 68 % 1015,7 hPa 0,0 l/m 0,0 km/h (0 Bft) W 270 8,4 C 14,2 C
20.07.2012 21:56 14,1 C 69 % 1015,8 hPa 0,0 l/m 0,0 km/h (0 Bft) W 270 8,5 C 14,1 C
20.07.2012 22:01 13,8 C 70 % 1015,7 hPa 0,0 l/m 1,4 km/h (1 Bft) W 270 8,4 C 13,8 C
20.07.2012 22:06 13,7 C 71 % 1015,7 hPa 0,0 l/m 0,0 km/h (0 Bft) W 270 8,5 C 13,7 C
20.07.2012 22:11 13,6 C 71 % 1015,7 hPa 0,0 l/m 0,0 km/h (0 Bft) W 270 8,4 C 13,6 C
20.07.2012 22:16 13,4 C 73 % 1015,7 hPa 0,0 l/m 0,0 km/h (0 Bft) W 270 8,7 C 13,4 C
20.07.2012 22:21 13,3 C 73 % 1015,7 hPa 0,0 l/m 0,0 km/h (0 Bft) N 360 8,6 C 13,3 C
20.07.2012 22:26 13,2 C 73 % 1015,7 hPa 0,0 l/m 0,0 km/h (0 Bft) N 360 8,5 C 13,2 C
20.07.2012 22:31 13,1 C 74 % 1015,9 hPa 0,0 l/m 0,0 km/h (0 Bft) N 360 8,6 C 13,1 C
20.07.2012 22:36 12,9 C 75 % 1015,9 hPa 0,0 l/m 1,4 km/h (1 Bft) N 360 8,6 C 12,9 C
20.07.2012 22:41 12,9 C 75 % 1016,0 hPa 0,0 l/m 2,9 km/h (1 Bft) W-SW 247 8,6 C 12,9 C
20.07.2012 22:46 12,9 C 75 % 1016,1 hPa 0,0 l/m 0,0 km/h (0 Bft) W 270 8,6 C 12,9 C
20.07.2012 22:51 13,0 C 75 % 1016,1 hPa 0,0 l/m 5,0 km/h (1 Bft) W-SW 247 8,7 C 13,0 C
20.07.2012 22:56 13,1 C 75 % 1016,2 hPa 0,0 l/m 0,0 km/h (0 Bft) NW 315 8,8 C 13,1 C
20.07.2012 23:01 13,2 C 75 % 1016,2 hPa 0,0 l/m 2,2 km/h (1 Bft) NW 315 8,9 C 13,2 C
20.07.2012 23:06 13,1 C 75 % 1016,1 hPa 0,0 l/m 0,0 km/h (0 Bft) NW 315 8,8 C 13,1 C
20.07.2012 23:11 13,1 C 75 % 1016,0 hPa 0,0 l/m 0,0 km/h (0 Bft) W-NW 292 8,8 C 13,1 C
20.07.2012 23:16 13,1 C 76 % 1016,2 hPa 0,0 l/m 2,5 km/h (1 Bft) NW 315 9,0 C 13,1 C
20.07.2012 23:21 13,1 C 76 % 1016,3 hPa 0,0 l/m 0,0 km/h (0 Bft) W 270 9,0 C 13,1 C
20.07.2012 23:26 13,1 C 76 % 1016,3 hPa 0,0 l/m 6,5 km/h (2 Bft) W-NW 292 9,0 C 13,1 C
20.07.2012 23:31 13,2 C 76 % 1016,4 hPa 0,0 l/m 3,6 km/h (1 Bft) W-NW 292 9,1 C 13,2 C
20.07.2012 23:36 13,1 C 76 % 1016,4 hPa 0,0 l/m 4,0 km/h (1 Bft) W-NW 292 9,0 C 13,1 C
20.07.2012 23:41 13,1 C 76 % 1016,4 hPa 0,0 l/m 0,0 km/h (0 Bft) W 270 9,0 C 13,1 C
20.07.2012 23:46 12,9 C 76 % 1016,5 hPa 0,0 l/m 4,0 km/h (1 Bft) W-NW 292 8,8 C 12,9 C
20.07.2012 23:51 12,9 C 77 % 1016,6 hPa 0,0 l/m 4,0 km/h (1 Bft) W-NW 292 9,0 C 12,9 C
20.07.2012 23:56 12,8 C 77 % 1016,5 hPa 0,0 l/m 2,5 km/h (1 Bft) W 270 8,9 C 12,8 C
_ Min-Zeit 06:11 16:26 00:01 - 21:01 - - 19:51 06:11
Minimum _ 11,5 C 45 % 1007,7 hPa - 0,0 km/h (0 Bft) - - 7,7 C 11,5 C
_ Max-Zeit 16:21 06:21 23:51 00:01 09:51 - - 09:56 16:21
Maximum _ 21,7 C 85 % 1016,6 hPa 0,0 l/m 33,8 km/h
W-SW (5 Bft)
- - 11,3 C 21,7 C
Durchschnitt _ 16,1 C 66 % 1012,7 hPa #0,0 l/m 11,2 km/h (2 Bft) W - 9,6 C 16,1 C
(c) by David Heller